Time;durP1;ratioP1;P1;durP2;ratioP2;P2;SDS_P1;SDS_P2;PMS_P1;PMS_P2;Temp;Humidity;BMP_temperature;BMP_pressure;BME280_temperature;BME280_humidity;BME280_pressure;Samples;Min_cycle;Max_cycle;Signal;HPM_P1;HPM_P2
2022/04/22 00:01:20;;;;;;;9.30;7.80;;;10.10;99.90;;;;;;5074944;28;20170;-66
2022/04/22 00:03:46;;;;;;;8.33;7.63;;;10.00;99.90;;;;;;5075545;28;20189;-67
2022/04/22 00:06:12;;;;;;;7.80;7.20;;;10.00;99.90;;;;;;5074954;28;20193;-67
2022/04/22 00:08:37;;;;;;;8.47;7.67;;;10.00;99.90;;;;;;5075021;28;20182;-67
2022/04/22 00:13:47;;;;;;;8.17;7.47;;;9.90;99.90;;;;;;5075016;28;20294;-67
2022/04/22 00:16:13;;;;;;;8.37;7.67;;;9.90;99.90;;;;;;5074675;28;20229;-66
2022/04/22 00:18:39;;;;;;;8.97;8.23;;;9.80;99.90;;;;;;5074855;28;20204;-66
2022/04/22 00:21:06;;;;;;;8.80;7.93;;;9.80;99.90;;;;;;5074928;28;20197;-66
2022/04/22 00:23:31;;;;;;;8.70;7.90;;;9.70;99.90;;;;;;5073775;28;20214;-67
2022/04/22 00:25:58;;;;;;;9.70;8.47;;;9.70;99.90;;;;;;5072976;28;20198;-66
2022/04/22 00:28:24;;;;;;;8.63;7.83;;;9.70;99.90;;;;;;5074821;28;20639;-66
2022/04/22 00:30:50;;;;;;;11.90;7.97;;;9.60;99.90;;;;;;5074706;28;20170;-67
2022/04/22 00:33:17;;;;;;;9.83;8.40;;;9.50;99.90;;;;;;5074614;28;20240;-67
2022/04/22 00:35:44;;;;;;;12.40;8.70;;;9.40;99.90;;;;;;5074213;28;20209;-67
2022/04/22 00:38:10;;;;;;;9.57;8.73;;;9.30;99.90;;;;;;5074606;28;20261;-66
2022/04/22 00:40:36;;;;;;;9.07;8.27;;;9.30;99.90;;;;;;5074716;28;20182;-66
2022/04/22 00:43:18;;;;;;;9.30;8.60;;;9.20;99.90;;;;;;5074468;28;20289;-66
2022/04/22 00:45:45;;;;;;;8.77;8.00;;;9.20;99.90;;;;;;5074101;28;20233;-67
2022/04/22 00:48:10;;;;;;;11.33;9.03;;;9.20;99.90;;;;;;5072862;28;20170;-66
2022/04/22 00:50:38;;;;;;;10.03;8.87;;;9.10;99.90;;;;;;5074499;28;20177;-66
2022/04/22 00:53:04;;;;;;;9.83;8.93;;;9.10;99.90;;;;;;5074204;28;20231;-66
2022/04/22 00:55:30;;;;;;;9.57;8.67;;;9.00;99.90;;;;;;5073912;28;20200;-67
2022/04/22 00:57:57;;;;;;;10.10;8.83;;;9.00;99.90;;;;;;5072733;28;20323;-66
2022/04/22 01:00:23;;;;;;;10.50;9.50;;;9.00;99.90;;;;;;5074171;28;20219;-67
2022/04/22 01:02:48;;;;;;;10.70;9.53;;;9.00;99.90;;;;;;5074390;28;20206;-67
2022/04/22 01:10:42;;;;;;;11.47;10.30;;;8.90;99.90;;;;;;5074293;28;20552;-66
2022/04/22 01:13:09;;;;;;;10.37;9.37;;;8.80;99.90;;;;;;5074170;28;20182;-66
2022/04/22 01:15:38;;;;;;;11.53;10.37;;;8.80;99.90;;;;;;5073546;28;20310;-66
2022/04/22 01:18:04;;;;;;;11.43;10.33;;;8.80;99.90;;;;;;5074261;28;20545;-66
2022/04/22 01:20:30;;;;;;;13.20;11.23;;;8.80;99.90;;;;;;5073966;28;20186;-66
2022/04/22 01:22:56;;;;;;;11.37;10.23;;;8.70;99.90;;;;;;5073927;28;20201;-66
2022/04/22 01:25:22;;;;;;;12.47;11.17;;;8.70;99.90;;;;;;5073046;28;20190;-66
2022/04/22 01:27:50;;;;;;;13.03;10.17;;;8.60;99.90;;;;;;5073981;28;20177;-66
2022/04/22 01:30:22;;;;;;;11.90;10.73;;;8.60;99.90;;;;;;5072081;28;20178;-66
2022/04/22 01:32:52;;;;;;;11.53;10.53;;;8.60;99.90;;;;;;5073883;28;20177;-66
2022/04/22 01:35:19;;;;;;;11.20;10.10;;;8.50;99.90;;;;;;5072635;28;20198;-66
2022/04/22 01:37:45;;;;;;;12.83;11.33;;;8.50;99.90;;;;;;5073616;28;20201;-67
2022/04/22 01:40:12;;;;;;;12.73;10.80;;;8.50;99.90;;;;;;5073240;28;20248;-66
2022/04/22 01:42:37;;;;;;;12.07;11.07;;;8.40;99.90;;;;;;5073512;28;20206;-67
2022/04/22 01:45:04;;;;;;;12.90;11.70;;;8.40;99.90;;;;;;5072616;28;20213;-66
2022/04/22 01:47:30;;;;;;;16.33;10.90;;;8.40;99.90;;;;;;5073449;28;20194;-66
2022/04/22 01:49:56;;;;;;;13.37;12.10;;;8.40;99.90;;;;;;5072312;28;20241;-66
2022/04/22 01:52:23;;;;;;;12.37;11.27;;;8.30;99.90;;;;;;5073303;28;20178;-66
2022/04/22 01:54:52;;;;;;;14.23;12.80;;;8.30;99.90;;;;;;5071645;28;20228;-66
2022/04/22 01:57:18;;;;;;;13.73;12.43;;;8.20;99.90;;;;;;5072824;28;20178;-66
2022/04/22 01:59:46;;;;;;;13.50;12.40;;;8.20;99.90;;;;;;5072755;28;20188;-66
2022/04/22 02:02:16;;;;;;;14.27;12.97;;;8.20;99.90;;;;;;5072866;28;20202;-66
2022/04/22 02:04:43;;;;;;;14.10;12.60;;;8.20;99.90;;;;;;5072790;28;20198;-67
2022/04/22 02:07:08;;;;;;;15.47;14.07;;;8.10;99.90;;;;;;5070383;28;20170;-66
2022/04/22 02:09:35;;;;;;;17.00;14.60;;;8.00;99.90;;;;;;5071306;28;20243;-66
2022/04/22 02:12:01;;;;;;;15.23;13.63;;;7.90;99.90;;;;;;5072955;28;20189;-67
2022/04/22 02:14:26;;;;;;;16.23;14.60;;;7.90;99.90;;;;;;5072752;28;20652;-67
2022/04/22 02:16:53;;;;;;;14.53;13.13;;;7.90;99.90;;;;;;5072610;28;20212;-66
2022/04/22 02:19:18;;;;;;;16.53;14.93;;;7.80;99.90;;;;;;5071330;28;20251;-66
2022/04/22 02:21:44;;;;;;;17.13;15.37;;;7.80;99.90;;;;;;5072591;28;20205;-66
2022/04/22 02:24:10;;;;;;;16.23;14.53;;;7.80;99.90;;;;;;5071316;28;20180;-67
2022/04/22 02:29:21;;;;;;;16.33;14.67;;;7.70;99.90;;;;;;5072633;28;20181;-67
2022/04/22 02:31:48;;;;;;;16.10;14.43;;;7.70;99.90;;;;;;5072414;28;20185;-67
2022/04/22 02:34:13;;;;;;;15.67;14.27;;;7.70;99.90;;;;;;5072522;28;20652;-67
2022/04/22 02:36:41;;;;;;;16.50;14.80;;;7.70;99.90;;;;;;5070649;28;20229;-66
2022/04/22 02:39:07;;;;;;;17.27;15.60;;;7.60;99.90;;;;;;5072664;28;20638;-66
2022/04/22 02:47:00;;;;;;;16.03;14.33;;;7.60;99.90;;;;;;5052618;28;20174;-66
2022/04/22 02:49:26;;;;;;;18.17;16.23;;;7.60;99.90;;;;;;5051867;28;20174;-66
2022/04/22 02:51:51;;;;;;;17.93;14.97;;;7.60;99.90;;;;;;5072412;28;20269;-66
2022/04/22 02:54:18;;;;;;;17.87;15.30;;;7.60;99.90;;;;;;5070829;28;20546;-67
2022/04/22 02:56:43;;;;;;;16.83;15.17;;;7.60;99.90;;;;;;5071608;28;20221;-66
2022/04/22 02:59:09;;;;;;;16.23;14.40;;;7.60;99.90;;;;;;5072267;28;20185;-66
2022/04/22 03:01:35;;;;;;;17.43;14.73;;;7.60;99.90;;;;;;5071870;28;20178;-66
2022/04/22 03:04:01;;;;;;;16.23;14.63;;;7.60;99.90;;;;;;5072083;28;20188;-66
2022/04/22 03:06:26;;;;;;;16.53;14.83;;;7.60;99.90;;;;;;5071562;28;20752;-66
2022/04/22 03:08:52;;;;;;;15.23;13.80;;;7.50;99.90;;;;;;5072335;28;20209;-66
2022/04/22 03:11:21;;;;;;;16.57;14.37;;;7.50;99.90;;;;;;5071925;28;20200;-66
2022/04/22 03:13:53;;;;;;;18.30;16.53;;;7.60;99.90;;;;;;5073065;28;20174;-66
2022/04/22 03:16:22;;;;;;;19.50;17.50;;;7.50;99.90;;;;;;5071512;28;20198;-66
2022/04/22 03:18:48;;;;;;;17.43;15.43;;;7.50;99.90;;;;;;5071796;28;20174;-67
2022/04/22 03:21:13;;;;;;;16.47;14.87;;;7.50;99.90;;;;;;5070045;28;20238;-67
2022/04/22 03:23:39;;;;;;;17.07;14.73;;;7.50;99.90;;;;;;5070224;28;20214;-67
2022/04/22 03:26:05;;;;;;;18.53;15.03;;;7.60;99.90;;;;;;5071019;28;20196;-66
2022/04/22 03:28:31;;;;;;;18.33;14.50;;;7.50;99.90;;;;;;5071665;28;20248;-66
2022/04/22 03:30:56;;;;;;;17.70;15.93;;;7.60;99.90;;;;;;5070786;28;20185;-66
2022/04/22 03:33:22;;;;;;;18.10;15.90;;;7.60;99.90;;;;;;5071145;28;20178;-66
2022/04/22 03:35:50;;;;;;;17.57;14.70;;;7.60;99.90;;;;;;5070448;28;20342;-66
2022/04/22 03:38:18;;;;;;;21.17;15.87;;;7.60;99.90;;;;;;5082315;28;20178;-66
2022/04/22 03:40:44;;;;;;;18.20;16.23;;;7.60;99.90;;;;;;5093927;28;20200;-66
2022/04/22 03:43:10;;;;;;;18.70;16.03;;;7.60;99.90;;;;;;5094775;28;20185;-66
2022/04/22 03:45:36;;;;;;;17.47;15.77;;;7.50;99.90;;;;;;5078109;28;20237;-67
2022/04/22 03:48:05;;;;;;;17.70;15.67;;;7.50;99.90;;;;;;5071899;28;20603;-67
2022/04/22 03:50:31;;;;;;;17.03;15.23;;;7.50;99.90;;;;;;5071368;28;20632;-67
2022/04/22 03:52:56;;;;;;;19.77;16.10;;;7.40;99.90;;;;;;5071601;28;20223;-67
2022/04/22 03:55:22;;;;;;;18.00;15.33;;;7.40;99.90;;;;;;5070608;28;20209;-66
2022/04/22 04:00:32;;;;;;;22.37;18.70;;;7.40;99.90;;;;;;5071372;28;20197;-67
2022/04/22 04:02:58;;;;;;;18.53;15.60;;;7.40;99.90;;;;;;5071349;28;20205;-67
2022/04/22 04:05:23;;;;;;;19.30;17.40;;;7.40;99.90;;;;;;5070504;28;20328;-66
2022/04/22 04:07:49;;;;;;;18.60;16.63;;;7.30;99.90;;;;;;5070443;28;20638;-66
2022/04/22 04:15:58;;;;;;;19.10;17.03;;;7.30;99.90;;;;;;5070896;28;20658;-66
2022/04/22 04:18:29;;;;;;;18.40;15.73;;;7.30;99.90;;;;;;5069979;28;20181;-66
2022/04/22 04:23:40;;;;;;;20.03;17.00;;;7.20;99.90;;;;;;5029736;28;20226;-66
2022/04/22 04:26:07;;;;;;;23.97;18.53;;;7.10;99.90;;;;;;5069153;28;20214;-66
2022/04/22 04:28:34;;;;;;;23.17;18.10;;;7.20;99.90;;;;;;5070923;28;20525;-66
2022/04/22 04:31:00;;;;;;;20.50;17.83;;;7.10;99.90;;;;;;5071348;28;20204;-66
2022/04/22 04:33:25;;;;;;;22.27;18.37;;;7.10;99.90;;;;;;5069254;28;20178;-66
2022/04/22 04:35:51;;;;;;;22.20;18.17;;;7.10;99.90;;;;;;5070918;28;20194;-66
2022/04/22 04:38:17;;;;;;;21.87;18.00;;;7.20;99.90;;;;;;5070848;28;20589;-66
2022/04/22 04:40:44;;;;;;;21.83;17.73;;;7.10;99.90;;;;;;5071970;28;20297;-66
2022/04/22 04:43:10;;;;;;;22.33;18.50;;;7.20;99.90;;;;;;5074331;28;20206;-66
2022/04/22 04:45:36;;;;;;;24.23;18.07;;;7.20;99.90;;;;;;5074056;28;20205;-66
2022/04/22 04:48:01;;;;;;;26.77;20.43;;;7.30;99.90;;;;;;5074231;28;20201;-66
2022/04/22 04:50:27;;;;;;;23.53;19.27;;;7.40;99.90;;;;;;5074732;28;20639;-66
2022/04/22 04:52:53;;;;;;;24.63;18.17;;;7.40;99.90;;;;;;5074358;28;20213;-67
2022/04/22 04:55:19;;;;;;;21.90;17.73;;;7.40;99.90;;;;;;5073862;28;20229;-67
2022/04/22 04:57:44;;;;;;;25.53;19.00;;;7.50;99.90;;;;;;5073894;28;20178;-66
2022/04/22 05:00:11;;;;;;;24.00;18.07;;;7.50;99.90;;;;;;5074295;28;20227;-67
2022/04/22 05:02:38;;;;;;;29.30;19.97;;;7.50;99.90;;;;;;5073948;28;20232;-67
2022/04/22 05:05:05;;;;;;;29.23;18.73;;;7.60;99.90;;;;;;5073569;28;20655;-67
2022/04/22 05:07:31;;;;;;;28.40;19.00;;;7.60;99.90;;;;;;5073217;28;20201;-66
2022/04/22 05:09:57;;;;;;;23.10;18.50;;;7.70;99.90;;;;;;5073951;28;20551;-66
2022/04/22 05:12:23;;;;;;;25.07;19.53;;;7.80;99.90;;;;;;5074084;28;20182;-66
2022/04/22 05:14:49;;;;;;;27.90;22.20;;;7.90;99.90;;;;;;5072168;28;20267;-66
2022/04/22 05:17:14;;;;;;;27.60;20.83;;;7.90;99.90;;;;;;5073659;28;20182;-66
2022/04/22 05:19:40;;;;;;;26.07;22.03;;;8.00;99.90;;;;;;5073790;28;20646;-66
2022/04/22 05:22:06;;;;;;;28.13;21.93;;;8.10;99.90;;;;;;5073483;28;20667;-66
2022/04/22 05:24:32;;;;;;;26.23;19.77;;;8.10;99.90;;;;;;5073415;28;20197;-66
2022/04/22 05:26:59;;;;;;;26.90;19.57;;;8.20;99.90;;;;;;5073796;28;20562;-67
2022/04/22 05:34:54;;;;;;;26.50;19.80;;;8.40;99.90;;;;;;5073158;28;20697;-67
2022/04/22 05:37:20;;;;;;;25.30;19.07;;;8.50;99.90;;;;;;5073553;28;20208;-66
2022/04/22 05:39:46;;;;;;;24.47;19.33;;;8.60;99.90;;;;;;5073227;28;20217;-67
2022/04/22 05:42:12;;;;;;;28.07;18.90;;;8.60;99.90;;;;;;5073026;28;20194;-67
2022/04/22 05:44:38;;;;;;;26.40;19.57;;;8.70;99.90;;;;;;5071345;28;20194;-65
2022/04/22 05:47:05;;;;;;;26.70;18.77;;;8.80;99.90;;;;;;5073420;28;20628;-66
2022/04/22 05:49:31;;;;;;;26.10;17.90;;;8.90;99.90;;;;;;5073033;28;20186;-66
2022/04/22 05:51:56;;;;;;;23.40;18.50;;;9.00;99.90;;;;;;5071863;28;20537;-66
2022/04/22 05:54:22;;;;;;;21.93;16.87;;;9.10;99.90;;;;;;5072717;28;20201;-66
2022/04/22 05:56:48;;;;;;;23.83;18.00;;;9.40;99.90;;;;;;5073099;28;20178;-66
2022/04/22 05:59:13;;;;;;;20.80;16.67;;;9.70;99.90;;;;;;5071175;28;20213;-66
2022/04/22 06:01:39;;;;;;;22.60;16.60;;;9.90;99.90;;;;;;5071564;28;20205;-67
2022/04/22 06:04:04;;;;;;;18.03;14.43;;;10.30;99.90;;;;;;5071459;28;20178;-66
2022/04/22 06:06:30;;;;;;;18.07;13.93;;;10.80;99.90;;;;;;5071290;28;20213;-66
2022/04/22 06:11:40;;;;;;;16.17;12.80;;;11.80;99.90;;;;;;5072840;28;20204;-67
2022/04/22 06:14:05;;;;;;;13.97;12.37;;;12.50;99.90;;;;;;5070921;28;20596;-67
2022/04/22 06:16:31;;;;;;;13.97;12.27;;;12.90;99.90;;;;;;5072684;28;20200;-67
2022/04/22 06:18:57;;;;;;;13.03;11.70;;;13.30;99.90;;;;;;5072605;28;20241;-67
2022/04/22 06:21:23;;;;;;;16.40;13.07;;;13.40;99.90;;;;;;5071378;28;20186;-67
2022/04/22 06:23:49;;;;;;;15.63;12.73;;;13.60;99.90;;;;;;5072575;28;20209;-67
2022/04/22 06:26:14;;;;;;;13.07;11.00;;;13.80;99.90;;;;;;5070620;28;20194;-66
2022/04/22 06:28:40;;;;;;;13.90;11.43;;;13.90;99.90;;;;;;5072455;28;20170;-67
2022/04/22 06:31:05;;;;;;;13.17;11.40;;;14.00;99.90;;;;;;5072215;28;20192;-67
2022/04/22 06:33:31;;;;;;;15.50;13.90;;;14.00;99.90;;;;;;5072492;28;20170;-67
2022/04/22 06:36:03;;;;;;;14.90;13.40;;;14.10;99.90;;;;;;5070557;28;20255;-67
2022/04/22 06:38:29;;;;;;;15.10;12.90;;;14.30;99.90;;;;;;5072474;28;20174;-67
2022/04/22 06:46:24;;;;;;;13.10;11.40;;;14.20;99.90;;;;;;5071738;28;20212;-67
2022/04/22 06:48:49;;;;;;;15.77;12.03;;;14.20;99.90;;;;;;5071899;28;20629;-67
2022/04/22 06:51:17;;;;;;;14.77;12.57;;;14.30;99.90;;;;;;5072126;28;20491;-67
2022/04/22 06:53:43;;;;;;;14.83;13.33;;;14.30;99.90;;;;;;5071801;28;20182;-67
2022/04/22 06:56:09;;;;;;;15.73;12.37;;;14.60;99.90;;;;;;5071604;28;20203;-67
2022/04/22 06:58:37;;;;;;;14.17;12.07;;;14.80;99.90;;;;;;5071944;28;20208;-67
2022/04/22 07:01:04;;;;;;;14.07;11.70;;;14.90;99.90;;;;;;5071745;28;20170;-67
2022/04/22 07:03:30;;;;;;;11.77;10.60;;;15.00;99.90;;;;;;5071478;28;20206;-67
2022/04/22 07:05:56;;;;;;;14.50;11.97;;;15.20;99.90;;;;;;5069528;28;20201;-67
2022/04/22 07:08:21;;;;;;;13.17;11.70;;;15.10;99.90;;;;;;5071286;28;20182;-66
2022/04/22 07:10:52;;;;;;;14.57;12.70;;;14.90;99.90;;;;;;5070954;28;20210;-66
2022/04/22 07:13:18;;;;;;;15.13;12.93;;;14.60;99.90;;;;;;5071393;28;20186;-66
2022/04/22 07:15:46;;;;;;;14.67;12.47;;;14.70;99.90;;;;;;5070824;28;20622;-66
2022/04/22 07:18:13;;;;;;;13.53;11.30;;;14.80;99.90;;;;;;5080708;28;20200;-66
2022/04/22 07:20:39;;;;;;;14.27;11.47;;;14.70;99.90;;;;;;5090576;28;20222;-66
2022/04/22 07:23:05;;;;;;;13.73;11.57;;;14.30;99.90;;;;;;5070282;28;20764;-67
2022/04/22 07:25:31;;;;;;;14.87;13.37;;;14.00;99.90;;;;;;5071419;28;20284;-67
2022/04/22 07:27:58;;;;;;;12.93;11.63;;;14.00;99.90;;;;;;5070475;28;20178;-67
2022/04/22 07:30:25;;;;;;;16.37;12.83;;;13.80;99.90;;;;;;5078288;28;20204;-67
2022/04/22 07:32:51;;;;;;;17.13;13.20;;;13.50;99.90;;;;;;5087378;28;20675;-66
2022/04/22 07:35:19;;;;;;;15.40;12.83;;;13.70;99.90;;;;;;5085034;28;20221;-67
2022/04/22 07:37:53;;;;;;;14.63;13.03;;;13.80;99.90;;;;;;5082724;28;20185;-67
2022/04/22 07:40:20;;;;;;;16.50;14.70;;;13.70;99.90;;;;;;5070198;28;20491;-67
2022/04/22 07:48:22;;;;;;;18.20;13.83;;;12.90;99.90;;;;;;5071222;28;20181;-66
2022/04/22 07:50:48;;;;;;;15.53;13.93;;;12.60;99.90;;;;;;5081623;28;20181;-65
2022/04/22 07:53:15;;;;;;;17.20;13.33;;;12.40;99.90;;;;;;5090286;28;20173;-66
2022/04/22 07:55:41;;;;;;;17.57;13.90;;;12.40;99.90;;;;;;5075893;28;20727;-66
2022/04/22 07:58:09;;;;;;;16.30;13.70;;;12.30;99.90;;;;;;5071416;28;20440;-66
2022/04/22 08:00:35;;;;;;;14.87;13.17;;;12.30;99.90;;;;;;5071408;28;20654;-66
2022/04/22 08:03:00;;;;;;;17.37;14.57;;;12.30;99.90;;;;;;5071238;28;20267;-66
2022/04/22 08:05:26;;;;;;;16.20;13.20;;;12.50;99.90;;;;;;5069396;28;20240;-66
2022/04/22 08:07:52;;;;;;;14.80;13.17;;;13.00;99.90;;;;;;5070197;28;20182;-67
2022/04/22 08:10:17;;;;;;;14.80;12.57;;;13.60;99.90;;;;;;5069887;28;20589;-66
2022/04/22 08:12:43;;;;;;;12.67;11.40;;;14.00;99.90;;;;;;5071083;28;20190;-65
2022/04/22 08:15:09;;;;;;;12.97;11.67;;;14.60;99.90;;;;;;5070847;28;20268;-66
2022/04/22 08:17:38;;;;;;;14.53;11.00;;;15.10;99.90;;;;;;5074388;28;20182;-66
2022/04/22 08:20:07;;;;;;;11.50;10.27;;;15.70;99.90;;;;;;5074806;28;20232;-65
2022/04/22 08:22:33;;;;;;;11.27;10.17;;;16.10;99.90;;;;;;5072246;28;20214;-66
2022/04/22 08:25:00;;;;;;;11.53;10.33;;;16.40;99.90;;;;;;5074742;28;20190;-67
2022/04/22 08:27:26;;;;;;;11.50;10.30;;;16.40;99.90;;;;;;5074765;28;20174;-66
2022/04/22 08:29:52;;;;;;;12.40;11.10;;;16.50;99.90;;;;;;5074788;28;20224;-67
2022/04/22 08:32:18;;;;;;;11.63;10.63;;;16.60;99.90;;;;;;5074250;28;20492;-65
2022/04/22 08:34:44;;;;;;;11.83;10.60;;;16.70;99.90;;;;;;5074008;28;20198;-65
2022/04/22 08:37:10;;;;;;;10.87;9.87;;;17.10;99.90;;;;;;5073490;28;20178;-67
2022/04/22 08:39:36;;;;;;;12.57;11.23;;;17.00;99.90;;;;;;5073302;28;20230;-66
2022/04/22 08:42:03;;;;;;;12.63;10.43;;;17.00;99.90;;;;;;5074372;28;20201;-66
2022/04/22 08:44:30;;;;;;;10.37;9.37;;;17.40;99.90;;;;;;5074178;28;20649;-67
2022/04/22 08:50:02;;;;;;;11.27;10.17;;;18.30;99.90;;;;;;5074666;28;20181;-65
2022/04/22 08:52:31;;;;;;;11.90;10.67;;;18.10;99.90;;;;;;5072910;28;20191;-66
2022/04/22 08:54:58;;;;;;;11.93;10.83;;;18.00;99.90;;;;;;5074041;28;20239;-66
2022/04/22 08:57:24;;;;;;;14.23;12.40;;;17.50;99.90;;;;;;5073922;28;20550;-67
2022/04/22 08:59:51;;;;;;;12.87;11.70;;;16.90;99.90;;;;;;5074225;28;20174;-67
2022/04/22 09:02:18;;;;;;;11.33;10.13;;;16.70;99.90;;;;;;5072286;28;20201;-66
2022/04/22 09:04:47;;;;;;;9.80;8.83;;;16.70;99.90;;;;;;5073746;28;20202;-66
2022/04/22 09:07:13;;;;;;;8.53;7.73;;;16.70;99.90;;;;;;5071736;28;20171;-66
2022/04/22 09:09:43;;;;;;;8.87;8.10;;;17.00;99.90;;;;;;5073597;28;20170;-67
2022/04/22 09:12:11;;;;;;;8.43;7.57;;;16.90;99.90;;;;;;5073692;28;20213;-66
2022/04/22 09:14:45;;;;;;;9.97;9.20;;;16.80;99.90;;;;;;5073738;28;20178;-67
2022/04/22 09:17:15;;;;;;;9.37;8.33;;;16.80;99.90;;;;;;5083569;28;20564;-67
2022/04/22 09:19:43;;;;;;;8.50;7.73;;;17.10;99.90;;;;;;5094054;28;20619;-66
2022/04/22 09:22:09;;;;;;;8.70;7.90;;;17.50;99.90;;;;;;5081219;28;20609;-67
2022/04/22 09:24:58;;;;;;;9.30;7.40;;;17.80;99.90;;;;;;5073525;28;20186;-67
2022/04/22 09:27:35;;;;;;;8.57;7.73;;;17.80;99.90;;;;;;5072418;28;20178;-66
2022/04/22 09:30:07;;;;;;;8.07;7.27;;;17.60;99.90;;;;;;5073350;28;20591;-67
2022/04/22 09:32:37;;;;;;;8.03;7.23;;;17.30;99.90;;;;;;5073732;28;20174;-67
2022/04/22 09:35:09;;;;;;;8.10;7.40;;;17.10;99.90;;;;;;5072940;28;20206;-67
2022/04/22 09:43:38;;;;;;;8.03;7.27;;;17.50;99.90;;;;;;5073549;28;20264;-67
2022/04/22 09:46:04;;;;;;;8.40;7.67;;;17.70;99.90;;;;;;5073134;28;20221;-66
2022/04/22 09:48:44;;;;;;;8.90;8.10;;;17.40;99.90;;;;;;5073723;28;20519;-66
2022/04/22 09:51:39;;;;;;;8.83;8.03;;;17.30;99.90;;;;;;5073208;28;20196;-67
2022/04/22 09:54:06;;;;;;;8.63;7.90;;;17.00;99.90;;;;;;5055577;28;20220;-67
2022/04/22 09:56:33;;;;;;;9.50;8.50;;;16.80;99.90;;;;;;5073323;28;20289;-66
2022/04/22 09:58:59;;;;;;;10.40;9.50;;;16.90;99.90;;;;;;5071569;28;20193;-69
2022/04/22 10:01:25;;;;;;;9.60;8.80;;;16.80;99.90;;;;;;5072110;28;20186;-67
2022/04/22 10:03:51;;;;;;;10.37;9.30;;;16.70;99.90;;;;;;5071469;28;20202;-67
2022/04/22 10:06:18;;;;;;;9.77;8.97;;;16.60;99.90;;;;;;5071125;28;20201;-68
2022/04/22 10:08:46;;;;;;;10.57;9.50;;;16.40;99.90;;;;;;5071876;28;20197;-68
2022/04/22 10:11:14;;;;;;;10.47;9.33;;;16.30;99.90;;;;;;5072853;28;20642;-67
2022/04/22 10:13:43;;;;;;;10.30;9.40;;;16.20;99.90;;;;;;5072771;28;20669;-68
2022/04/22 10:16:10;;;;;;;9.07;8.30;;;16.20;99.90;;;;;;5072268;28;20194;-67
2022/04/22 10:18:36;;;;;;;9.67;8.77;;;16.50;99.90;;;;;;5072250;28;20213;-67
2022/04/22 10:21:03;;;;;;;9.87;8.87;;;16.80;99.90;;;;;;5071454;28;20584;-67
2022/04/22 10:23:30;;;;;;;9.63;8.60;;;16.80;99.90;;;;;;5071287;28;20584;-67
2022/04/22 10:25:57;;;;;;;8.83;8.10;;;16.80;99.90;;;;;;5070563;28;20366;-66
2022/04/22 10:28:24;;;;;;;9.17;8.30;;;17.20;99.90;;;;;;5072604;28;20183;-66
2022/04/22 10:30:53;;;;;;;9.50;8.00;;;17.40;99.90;;;;;;5072491;28;20174;-67
2022/04/22 10:33:20;;;;;;;8.27;7.47;;;17.70;99.90;;;;;;5072378;28;20180;-66
2022/04/22 10:35:47;;;;;;;9.10;8.30;;;17.80;99.90;;;;;;5070672;28;20672;-65
2022/04/22 10:38:38;;;;;;;8.40;7.43;;;18.30;99.90;;;;;;5072094;28;20240;-66
2022/04/22 10:41:12;;;;;;;8.07;7.00;;;19.00;99.90;;;;;;5072071;28;20190;-66
2022/04/22 10:43:39;;;;;;;11.77;7.53;;;19.70;99.90;;;;;;5072154;28;20615;-66
2022/04/22 10:49:15;;;;;;;8.13;7.43;;;20.40;99.90;;;;;;5072120;28;20177;-66
2022/04/22 10:52:10;;;;;;;9.10;8.20;;;20.40;99.90;;;;;;5070657;28;20272;-65
2022/04/22 10:54:58;;;;;;;8.68;7.85;;;20.20;99.90;;;;;;5071740;28;20178;-65
2022/04/22 10:57:27;;;;;;;8.93;8.18;;;19.90;99.90;;;;;;5071877;28;20210;-65
2022/04/22 11:00:16;;;;;;;8.85;8.05;;;19.70;99.90;;;;;;5071881;28;20177;-65
2022/04/22 11:02:43;;;;;;;9.23;8.43;;;19.20;99.90;;;;;;5041606;28;20723;-66
2022/04/22 11:05:20;;;;;;;9.67;8.70;;;19.20;99.90;;;;;;5051481;28;20241;-66
2022/04/22 11:07:53;;;;;;;8.70;7.90;;;18.90;99.90;;;;;;5051521;28;20189;-66
2022/04/22 11:10:23;;;;;;;11.63;8.30;;;19.10;99.90;;;;;;5051901;28;20228;-66
2022/04/22 11:12:59;;;;;;;9.00;8.03;;;19.40;99.90;;;;;;5071841;28;20640;-66
2022/04/22 11:15:43;;;;;;;8.57;7.78;;;19.90;99.90;;;;;;5070927;28;20247;-66
2022/04/22 11:18:10;;;;;;;12.73;7.72;;;20.40;99.90;;;;;;5071572;28;20182;-66
2022/04/22 11:20:37;;;;;;;8.95;8.07;;;20.30;99.90;;;;;;5070141;28;20208;-66
2022/04/22 11:23:05;;;;;;;7.88;7.00;;;20.10;99.90;;;;;;5071532;28;20204;-66
2022/04/22 11:25:31;;;;;;;8.65;7.80;;;20.20;99.90;;;;;;5070800;28;20197;-66
2022/04/22 11:27:58;;;;;;;8.32;7.55;;;20.20;99.90;;;;;;5071542;28;20178;-66
2022/04/22 11:30:26;;;;;;;7.85;7.15;;;19.70;99.90;;;;;;5071268;28;20613;-66
2022/04/22 11:33:02;;;;;;;8.57;7.78;;;19.90;99.90;;;;;;5071614;28;20244;-66
2022/04/22 11:35:34;;;;;;;8.80;7.68;;;20.20;99.90;;;;;;5070853;28;20209;-66
2022/04/22 11:38:03;;;;;;;9.65;8.65;;;20.30;99.90;;;;;;5071596;28;20228;-66
2022/04/22 11:40:32;;;;;;;9.95;8.60;;;20.10;99.90;;;;;;5085238;28;20543;-66
2022/04/22 11:43:05;;;;;;;10.50;7.55;;;20.20;99.90;;;;;;5090283;28;20201;-66
2022/04/22 11:45:34;;;;;;;8.90;7.55;;;20.40;99.90;;;;;;5072606;28;20743;-66
2022/04/22 11:48:09;;;;;;;8.55;7.82;;;20.30;99.90;;;;;;5069565;28;20170;-66
2022/04/22 11:50:42;;;;;;;8.45;7.75;;;20.70;99.90;;;;;;5073977;28;20689;-66
2022/04/22 11:53:18;;;;;;;7.82;7.10;;;20.90;99.90;;;;;;5076071;28;20217;-66
2022/04/22 11:55:45;;;;;;;7.10;6.50;;;20.70;99.90;;;;;;5077443;28;20220;-66
2022/04/22 11:58:16;;;;;;;8.60;7.80;;;20.20;99.90;;;;;;5077495;28;20671;-65
2022/04/22 12:06:20;;;;;;;9.00;7.40;;;19.30;99.90;;;;;;5076980;28;20254;-66
2022/04/22 12:09:00;;;;;;;8.87;8.03;;;18.80;99.90;;;;;;5076512;28;20178;-66
2022/04/22 12:11:26;;;;;;;8.87;8.07;;;18.80;99.90;;;;;;5077350;28;20710;-65
2022/04/22 12:13:53;;;;;;;7.80;7.00;;;19.20;99.90;;;;;;5077536;28;20186;-65
2022/04/22 12:16:20;;;;;;;8.15;7.40;;;19.70;99.90;;;;;;5075676;28;20733;-65
2022/04/22 12:18:48;;;;;;;7.50;6.80;;;20.40;99.90;;;;;;5076334;28;20271;-66
2022/04/22 12:21:14;;;;;;;8.35;7.50;;;20.70;99.90;;;;;;5077245;28;20178;-66
2022/04/22 12:23:44;;;;;;;7.22;6.63;;;20.60;99.90;;;;;;5077574;28;20241;-66
2022/04/22 12:26:19;;;;;;;7.95;7.15;;;20.60;99.90;;;;;;5076694;28;20197;-65
2022/04/22 12:29:09;;;;;;;7.47;6.70;;;20.60;99.90;;;;;;5077702;28;20170;-65
2022/04/22 12:31:38;;;;;;;6.95;6.40;;;20.50;99.90;;;;;;5077250;28;20677;-65
2022/04/22 12:34:10;;;;;;;7.45;6.75;;;20.20;99.90;;;;;;5077364;28;20178;-65
2022/04/22 12:36:57;;;;;;;8.15;7.40;;;20.30;99.90;;;;;;5075537;28;20206;-65
2022/04/22 12:39:39;;;;;;;7.07;6.47;;;20.40;99.90;;;;;;5077351;28;20689;-64
2022/04/22 12:42:28;;;;;;;7.43;6.72;;;20.40;99.90;;;;;;5057101;28;20214;-65
2022/04/22 12:54:03;;;;;;;7.05;6.35;;;21.10;99.90;;;;;;5071075;28;20275;-66
2022/04/22 12:56:29;;;;;;;7.25;6.65;;;21.20;99.90;;;;;;5076285;28;20194;-65
2022/04/22 12:59:03;;;;;;;6.55;6.05;;;21.10;99.90;;;;;;5077499;28;20189;-66
2022/04/22 13:01:36;;;;;;;6.38;5.88;;;21.20;99.90;;;;;;5073889;28;20280;-66
2022/04/22 13:04:03;;;;;;;6.90;6.32;;;21.40;99.90;;;;;;5073864;28;20230;-66
2022/04/22 13:06:35;;;;;;;7.63;6.93;;;21.30;99.90;;;;;;5072906;28;20194;-67
2022/04/22 13:09:01;;;;;;;7.40;6.80;;;21.10;99.90;;;;;;5073886;28;20170;-65
2022/04/22 13:11:26;;;;;;;7.35;6.35;;;20.70;99.90;;;;;;5072047;28;20587;-66
2022/04/22 13:13:52;;;;;;;6.60;6.00;;;20.90;99.90;;;;;;5073645;28;20179;-66
2022/04/22 13:16:18;;;;;;;7.15;6.45;;;21.50;99.90;;;;;;5071965;28;20255;-65
2022/04/22 13:18:43;;;;;;;7.28;6.68;;;21.80;99.90;;;;;;5072308;28;20214;-65
2022/04/22 13:21:09;;;;;;;7.60;7.00;;;21.60;99.90;;;;;;5073873;28;20174;-65
2022/04/22 13:23:36;;;;;;;7.30;6.60;;;21.30;99.90;;;;;;5073538;28;20562;-65
2022/04/22 13:26:02;;;;;;;7.75;7.00;;;20.90;99.90;;;;;;5073136;28;20186;-67
2022/04/22 13:28:28;;;;;;;7.03;6.43;;;20.20;99.90;;;;;;5073390;28;20232;-64
2022/04/22 13:30:53;;;;;;;7.10;6.50;;;20.00;99.90;;;;;;5071889;28;20632;-67
2022/04/22 13:33:19;;;;;;;7.37;6.77;;;20.00;99.90;;;;;;5085828;28;20178;-67
2022/04/22 13:35:45;;;;;;;7.47;6.87;;;19.80;99.90;;;;;;5091289;28;20259;-65
2022/04/22 13:38:11;;;;;;;7.72;7.03;;;20.30;99.90;;;;;;5073366;28;20261;-68
2022/04/22 13:40:36;;;;;;;7.18;6.57;;;20.60;99.90;;;;;;5073220;28;20208;-65
2022/04/22 13:43:02;;;;;;;8.30;7.60;;;20.90;99.90;;;;;;5073320;28;20198;-67
2022/04/22 13:53:40;;;;;;;8.93;8.20;;;20.60;99.90;;;;;;5073313;28;20180;-67
2022/04/22 13:56:06;;;;;;;10.07;9.07;;;20.60;99.90;;;;;;5072436;28;20194;-67
2022/04/22 13:58:33;;;;;;;9.93;8.93;;;20.40;99.90;;;;;;5073074;28;20650;-67
2022/04/22 14:01:02;;;;;;;8.30;7.60;;;20.40;99.90;;;;;;5072754;28;20202;-67
2022/04/22 14:03:29;;;;;;;10.73;9.83;;;20.30;99.90;;;;;;5072803;28;20202;-67